Ross, Texas
Current Conditions -  °F | °C
As of 4:51 AM on Friday 31 Oct 2014 (Local Time) from KACT Reporting Station
Clear Clear  
Wind Chill: 14°   Ceiling: Unl
Heat Index: 14°   Visibility: 10mi
Dew Point: 11°   Wind: 9mph
Humidity: 81%   Direction: 330°NNW
Pressure: 30.18"   Gusts: NA
Location:  31.72°N, 97.12°W
Report Text: KACT 310951Z 33008KT 10SM CLR 14/11 A3018 RMK AO2 SLP215 T01440111
Loading
Personal Weather Stations






























Interactive Weather Map
Tropical Storm Tracking
New forecast layout! Learn more

10-Day Weather Forecast

Advertisements
Track Severe Weather on mobile